Time;durP1;ratioP1;P1;durP2;ratioP2;P2;SDS_P1;SDS_P2;PMS_P1;PMS_P2;Temp;Humidity;BMP_temperature;BMP_pressure;BME280_temperature;BME280_humidity;BME280_pressure;Samples;Min_cycle;Max_cycle;Signal;HPM_P1;HPM_P2
2024/01/19 00:00:04;;;;;;;;;;;-5.20;99.90;;;;;;4878766;29;19916;-88
2024/01/19 00:02:30;;;;;;;;;;;-5.30;99.90;;;;;;4879706;29;20371;-88
2024/01/19 00:04:56;;;;;;;;;;;-5.40;99.90;;;;;;4879451;29;19927;-88
2024/01/19 00:07:21;;;;;;;;;;;-5.60;99.90;;;;;;4879686;29;20351;-88
2024/01/19 00:09:47;;;;;;;;;;;-5.80;99.90;;;;;;4879641;29;19923;-88
2024/01/19 00:12:12;;;;;;;;;;;-6.00;99.90;;;;;;4879508;29;20372;-88
2024/01/19 00:14:38;;;;;;;;;;;-6.10;99.90;;;;;;4880227;29;19919;-88
2024/01/19 00:17:04;;;;;;;;;;;-6.20;99.90;;;;;;4879539;29;19919;-88
2024/01/19 00:19:29;;;;;;;;;;;-6.30;99.90;;;;;;4879573;29;20136;-88
2024/01/19 00:21:55;;;;;;;;;;;-6.40;99.90;;;;;;4863656;29;19920;-88
2024/01/19 00:24:20;;;;;;;;;;;-6.50;99.90;;;;;;4879231;29;20370;-88
2024/01/19 00:26:49;;;;;;;;;;;-6.60;99.90;;;;;;4879377;29;19919;-88
2024/01/19 00:29:14;;;;;;;;;;;-6.60;99.90;;;;;;4879428;29;19926;-88
2024/01/19 00:31:45;;;;;;;;;;;-6.70;99.90;;;;;;4882686;29;19971;-87
2024/01/19 00:34:23;;;;;;;;;;;-6.80;99.90;;;;;;4882642;29;20372;-88
2024/01/19 00:36:49;;;;;;;;;;;-6.70;99.90;;;;;;4882621;29;19916;-87
2024/01/19 00:39:15;;;;;;;;;;;-6.70;99.90;;;;;;4883004;29;19919;-88
2024/01/19 00:41:40;;;;;;;;;;;-6.60;99.90;;;;;;4867534;29;19928;-88
2024/01/19 00:44:06;;;;;;;;;;;-6.60;99.90;;;;;;4883031;29;20340;-88
2024/01/19 00:46:31;;;;;;;;;;;-6.70;99.90;;;;;;4882502;29;19915;-88
2024/01/19 00:48:57;;;;;;;;;;;-6.90;99.90;;;;;;4885059;29;20285;-87
2024/01/19 00:51:23;;;;;;;;;;;-7.10;99.90;;;;;;4886063;29;19915;-88
2024/01/19 00:53:48;;;;;;;;;;;-7.30;99.90;;;;;;4886116;29;20385;-88
2024/01/19 00:56:15;;;;;;;;;;;-7.40;99.90;;;;;;4885892;29;19919;-88
2024/01/19 00:58:42;;;;;;;;;;;-7.40;99.90;;;;;;4887157;29;19923;-88
2024/01/19 01:01:07;;;;;;;;;;;-7.50;99.90;;;;;;4886935;29;19911;-88
2024/01/19 01:03:33;;;;;;;;;;;-7.50;99.90;;;;;;4900844;29;19972;-88
2024/01/19 01:06:03;;;;;;;;;;;-7.50;99.90;;;;;;4902866;29;20463;-88
2024/01/19 01:08:29;;;;;;;;;;;-7.50;99.90;;;;;;4886431;29;19916;-87
2024/01/19 01:10:55;;;;;;;;;;;-7.40;99.90;;;;;;4885695;29;20275;-88
2024/01/19 01:13:21;;;;;;;;;;;-7.20;99.90;;;;;;4885240;29;20002;-88
2024/01/19 01:15:47;;;;;;;;;;;-7.00;99.90;;;;;;4885417;29;20368;-88
2024/01/19 01:18:12;;;;;;;;;;;-6.80;99.90;;;;;;4885517;29;19926;-88
2024/01/19 01:20:38;;;;;;;;;;;-6.70;99.90;;;;;;4885108;29;19915;-88
2024/01/19 01:23:04;;;;;;;;;;;-6.70;99.90;;;;;;4885116;29;19928;-88
2024/01/19 01:25:30;;;;;;;;;;;-6.60;99.90;;;;;;4885149;29;19967;-88
2024/01/19 01:27:56;;;;;;;;;;;-6.40;99.90;;;;;;4885395;29;20344;-88
2024/01/19 01:30:22;;;;;;;;;;;-6.20;99.90;;;;;;4900859;29;19916;-88
2024/01/19 01:32:47;;;;;;;;;;;-5.90;99.90;;;;;;4885020;29;20307;-88
2024/01/19 01:35:41;;;;;;;;;;;-5.80;99.90;;;;;;4885034;29;20436;-88
2024/01/19 01:38:06;;;;;;;;;;;-5.80;99.90;;;;;;4900632;29;20313;-88
2024/01/19 01:40:32;;;;;;;;;;;-5.90;99.90;;;;;;4884739;29;19916;-88
2024/01/19 01:43:00;;;;;;;;;;;-5.90;99.90;;;;;;4885072;29;19919;-88
2024/01/19 01:45:26;;;;;;;;;;;-5.80;99.90;;;;;;4884921;29;20372;-88
2024/01/19 01:47:51;;;;;;;;;;;-5.80;99.90;;;;;;4884827;29;19927;-88
2024/01/19 01:50:17;;;;;;;;;;;-5.80;99.90;;;;;;4884197;29;19915;-88
2024/01/19 01:52:43;;;;;;;;;;;-5.70;99.90;;;;;;4884615;29;19920;-88
2024/01/19 01:55:09;;;;;;;;;;;-5.40;99.90;;;;;;4884321;29;20331;-88
2024/01/19 01:57:34;;;;;;;;;;;-5.20;99.90;;;;;;4900432;29;19942;-88
2024/01/19 02:00:00;;;;;;;;;;;-4.90;99.90;;;;;;4883930;29;20672;-87
2024/01/19 02:02:26;;;;;;;;;;;-4.50;99.90;;;;;;4881369;29;20016;-87
2024/01/19 02:04:51;;;;;;;;;;;-4.10;99.90;;;;;;4884178;29;19922;-87
2024/01/19 02:07:17;;;;;;;;;;;-4.00;99.90;;;;;;4882889;29;19916;-88
2024/01/19 02:09:42;;;;;;;;;;;-3.90;99.90;;;;;;4899459;29;20002;-88
2024/01/19 02:12:08;;;;;;;;;;;-3.90;99.90;;;;;;4884148;29;20419;-88
2024/01/19 02:14:34;;;;;;;;;;;-3.90;99.90;;;;;;4884249;29;20705;-88
2024/01/19 02:16:59;;;;;;;;;;;-3.90;99.90;;;;;;4883701;29;19926;-88
2024/01/19 02:19:25;;;;;;;;;;;-3.90;99.90;;;;;;4899468;29;20560;-88
2024/01/19 02:21:50;;;;;;;;;;;-3.80;99.90;;;;;;4884289;29;19962;-88
2024/01/19 02:24:18;;;;;;;;;;;-3.70;99.90;;;;;;4884194;29;19923;-88
2024/01/19 02:26:44;;;;;;;;;;;-3.60;99.90;;;;;;4884203;29;20010;-88
2024/01/19 02:29:10;;;;;;;;;;;-3.50;99.90;;;;;;4884451;29;19959;-88
2024/01/19 02:31:35;;;;;;;;;;;-3.50;99.90;;;;;;4884561;29;20002;-88
2024/01/19 02:34:01;;;;;;;;;;;-3.50;99.90;;;;;;4883592;29;20379;-88
2024/01/19 02:36:27;;;;;;;;;;;-3.60;99.90;;;;;;4900105;29;19923;-87
2024/01/19 02:38:52;;;;;;;;;;;-3.70;99.90;;;;;;4883707;29;19916;-88
2024/01/19 02:41:18;;;;;;;;;;;-3.80;99.90;;;;;;4883335;29;19967;-88
2024/01/19 02:43:43;;;;;;;;;;;-3.90;99.90;;;;;;4898598;29;20017;-87
2024/01/19 02:46:09;;;;;;;;;;;-3.90;99.90;;;;;;4867806;29;19952;-88
2024/01/19 02:48:35;;;;;;;;;;;-4.00;99.90;;;;;;4883265;29;19916;-88
2024/01/19 02:51:00;;;;;;;;;;;-4.10;99.90;;;;;;4882651;29;20439;-88
2024/01/19 02:53:26;;;;;;;;;;;-4.10;99.90;;;;;;4882539;29;19967;-88
2024/01/19 02:55:52;;;;;;;;;;;-4.20;99.90;;;;;;4882934;29;19979;-88
2024/01/19 02:58:17;;;;;;;;;;;-4.20;99.90;;;;;;4883062;29;19955;-88
2024/01/19 03:00:44;;;;;;;;;;;-4.20;99.90;;;;;;4899946;29;19963;-88
2024/01/19 03:03:09;;;;;;;;;;;-4.10;99.90;;;;;;4898202;29;19927;-88
2024/01/19 03:05:35;;;;;;;;;;;-4.30;99.90;;;;;;4883255;29;20283;-88
2024/01/19 03:08:00;;;;;;;;;;;-4.30;99.90;;;;;;4882924;29;19916;-88
2024/01/19 03:10:26;;;;;;;;;;;-4.30;99.90;;;;;;4882855;29;20356;-88
2024/01/19 03:12:52;;;;;;;;;;;-4.30;99.90;;;;;;4883017;29;19926;-88
2024/01/19 03:15:17;;;;;;;;;;;-4.30;99.90;;;;;;4882534;29;20382;-88
2024/01/19 03:17:43;;;;;;;;;;;-4.30;99.90;;;;;;4882477;29;19919;-88
2024/01/19 03:20:08;;;;;;;;;;;-4.30;99.90;;;;;;4882327;29;19922;-88
2024/01/19 03:22:34;;;;;;;;;;;-4.30;99.90;;;;;;4882896;29;19919;-88
2024/01/19 03:25:00;;;;;;;;;;;-4.30;99.90;;;;;;4882242;29;19920;-87
2024/01/19 03:27:25;;;;;;;;;;;-4.30;99.90;;;;;;4882818;29;19916;-88
2024/01/19 03:29:51;;;;;;;;;;;-4.30;99.90;;;;;;4898327;29;20312;-87
2024/01/19 03:32:16;;;;;;;;;;;-4.30;99.90;;;;;;4897961;29;19920;-88
2024/01/19 03:34:42;;;;;;;;;;;-4.30;99.90;;;;;;4882415;29;19967;-88
2024/01/19 03:37:07;;;;;;;;;;;-4.20;99.90;;;;;;4882592;29;20296;-88
2024/01/19 03:39:33;;;;;;;;;;;-4.20;99.90;;;;;;4882477;29;19916;-88
2024/01/19 03:41:59;;;;;;;;;;;-4.20;99.90;;;;;;4882162;29;19927;-88
2024/01/19 03:44:25;;;;;;;;;;;-4.10;99.90;;;;;;4897748;29;20372;-88
2024/01/19 03:46:51;;;;;;;;;;;-4.10;99.90;;;;;;4882100;29;19916;-88
2024/01/19 03:49:17;;;;;;;;;;;-4.00;99.90;;;;;;4882396;29;19916;-88
2024/01/19 03:51:58;;;;;;;;;;;-3.90;99.90;;;;;;4899116;29;20391;-88
2024/01/19 03:54:24;;;;;;;;;;;-3.90;99.90;;;;;;4897982;29;19979;-88
2024/01/19 03:56:50;;;;;;;;;;;-3.80;99.90;;;;;;4899595;29;19916;-88
2024/01/19 03:59:15;;;;;;;;;;;-3.70;99.90;;;;;;4882209;29;20378;-88
2024/01/19 04:01:41;;;;;;;;;;;-3.70;99.90;;;;;;4882777;29;19926;-88
2024/01/19 04:04:06;;;;;;;;;;;-3.70;99.90;;;;;;4879621;29;20612;-88
2024/01/19 04:06:32;;;;;;;;;;;-3.80;99.90;;;;;;4882059;29;19919;-88
2024/01/19 04:08:58;;;;;;;;;;;-3.90;99.90;;;;;;4897361;29;19922;-88
2024/01/19 04:11:23;;;;;;;;;;;-3.90;99.90;;;;;;4881704;29;19925;-88
2024/01/19 04:13:49;;;;;;;;;;;-4.00;99.90;;;;;;4882071;29;19916;-88
2024/01/19 04:16:14;;;;;;;;;;;-4.00;99.90;;;;;;4897402;29;19915;-88
2024/01/19 04:18:40;;;;;;;;;;;-4.00;99.90;;;;;;4881638;29;20252;-88
2024/01/19 04:21:06;;;;;;;;;;;-4.10;99.90;;;;;;4882368;29;20333;-88
2024/01/19 04:23:32;;;;;;;;;;;-4.10;99.90;;;;;;4882060;29;19915;-88
2024/01/19 04:25:57;;;;;;;;;;;-4.20;99.90;;;;;;4882739;29;19963;-88
2024/01/19 04:28:23;;;;;;;;;;;-4.20;99.90;;;;;;4882516;29;19971;-88
2024/01/19 04:30:48;;;;;;;;;;;-4.30;99.90;;;;;;4882437;29;19916;-88
2024/01/19 04:33:14;;;;;;;;;;;-4.40;99.90;;;;;;4882335;29;20374;-88
2024/01/19 04:35:39;;;;;;;;;;;-4.40;99.90;;;;;;4882301;29;19919;-88
2024/01/19 04:38:05;;;;;;;;;;;-4.50;99.90;;;;;;4882268;29;20018;-88
2024/01/19 04:40:31;;;;;;;;;;;-4.60;99.90;;;;;;4882289;29;19923;-88
2024/01/19 04:42:57;;;;;;;;;;;-4.70;99.90;;;;;;4882152;29;19923;-88
2024/01/19 04:45:22;;;;;;;;;;;-4.80;99.90;;;;;;4897049;29;20059;-88
2024/01/19 04:47:48;;;;;;;;;;;-5.00;99.90;;;;;;4882036;29;19923;-89
2024/01/19 04:50:14;;;;;;;;;;;-5.10;99.90;;;;;;4881971;29;20371;-88
2024/01/19 04:52:39;;;;;;;;;;;-5.20;99.90;;;;;;4882156;29;19925;-88
2024/01/19 04:55:05;;;;;;;;;;;-5.30;99.90;;;;;;4881674;29;19915;-87
2024/01/19 04:57:31;;;;;;;;;;;-5.30;99.90;;;;;;4882568;29;20313;-88
2024/01/19 04:59:57;;;;;;;;;;;-5.30;99.90;;;;;;4881796;29;19919;-89
2024/01/19 05:02:23;;;;;;;;;;;-5.10;99.90;;;;;;4898053;29;20018;-88
2024/01/19 05:04:48;;;;;;;;;;;-5.10;99.90;;;;;;4882011;29;20444;-88
2024/01/19 05:07:14;;;;;;;;;;;-5.10;99.90;;;;;;4882626;29;19919;-88
2024/01/19 05:09:39;;;;;;;;;;;-5.10;99.90;;;;;;4881849;29;19963;-88
2024/01/19 05:12:06;;;;;;;;;;;-5.00;99.90;;;;;;4881789;29;19916;-88
2024/01/19 05:14:31;;;;;;;;;;;-5.00;99.90;;;;;;4882208;29;19922;-88
2024/01/19 05:16:57;;;;;;;;;;;-5.00;99.90;;;;;;4884018;29;19945;-89
2024/01/19 05:22:51;;;;;;;;;;;-4.90;99.90;;;;;;4902004;29;19925;-87
2024/01/19 05:25:18;;;;;;;;;;;-4.80;99.90;;;;;;4884735;29;20026;-88
2024/01/19 05:27:44;;;;;;;;;;;-4.70;99.90;;;;;;4884600;29;19922;-88
2024/01/19 05:30:13;;;;;;;;;;;-4.60;99.90;;;;;;4884288;29;19915;-88
2024/01/19 05:32:39;;;;;;;;;;;-4.40;99.90;;;;;;4884478;29;19964;-88
2024/01/19 05:35:05;;;;;;;;;;;-4.30;99.90;;;;;;4884825;29;19916;-88
2024/01/19 05:37:30;;;;;;;;;;;-4.20;99.90;;;;;;4884571;29;19920;-88
2024/01/19 05:39:56;;;;;;;;;;;-4.10;99.90;;;;;;4885028;29;19923;-88
2024/01/19 05:42:22;;;;;;;;;;;-4.10;99.90;;;;;;4884324;29;19919;-88
2024/01/19 05:44:47;;;;;;;;;;;-4.10;99.90;;;;;;4884233;29;19919;-87
2024/01/19 05:47:13;;;;;;;;;;;-4.10;99.90;;;;;;4884222;29;19915;-88
2024/01/19 05:49:41;;;;;;;;;;;-4.00;99.90;;;;;;4884421;29;19919;-88
2024/01/19 05:52:07;;;;;;;;;;;-4.00;99.90;;;;;;4884537;29;19971;-88
2024/01/19 05:54:36;;;;;;;;;;;-4.10;99.90;;;;;;4900107;29;20244;-88
2024/01/19 05:57:02;;;;;;;;;;;-4.30;99.90;;;;;;4884222;29;19915;-87
2024/01/19 05:59:38;;;;;;;;;;;-4.50;99.90;;;;;;4884447;29;19976;-88
2024/01/19 06:02:07;;;;;;;;;;;-4.70;99.90;;;;;;4884076;29;19991;-88
2024/01/19 06:04:40;;;;;;;;;;;-4.70;99.90;;;;;;4883663;29;19922;-88
2024/01/19 06:07:06;;;;;;;;;;;-4.90;99.90;;;;;;4884179;29;19915;-88
2024/01/19 06:09:31;;;;;;;;;;;-5.10;99.90;;;;;;4884091;29;19922;-88
2024/01/19 06:11:57;;;;;;;;;;;-5.20;99.90;;;;;;4868623;29;19912;-88
2024/01/19 06:14:51;;;;;;;;;;;-5.30;99.90;;;;;;4883775;29;19915;-88
2024/01/19 06:17:16;;;;;;;;;;;-5.50;99.90;;;;;;4900733;29;19916;-88
2024/01/19 06:19:42;;;;;;;;;;;-5.60;99.90;;;;;;4882234;29;19912;-88
2024/01/19 06:22:08;;;;;;;;;;;-5.70;99.90;;;;;;4884647;29;19920;-88
2024/01/19 06:24:36;;;;;;;;;;;-5.80;99.90;;;;;;4884013;29;19965;-87
2024/01/19 06:27:03;;;;;;;;;;;-6.00;99.90;;;;;;4884477;29;20010;-87
2024/01/19 06:29:28;;;;;;;;;;;-6.20;99.90;;;;;;4883960;29;20319;-88
2024/01/19 06:31:54;;;;;;;;;;;-6.30;99.90;;;;;;4868645;29;20067;-88
2024/01/19 06:34:19;;;;;;;;;;;-6.50;99.90;;;;;;4883845;29;20389;-88
2024/01/19 06:36:45;;;;;;;;;;;-6.70;99.90;;;;;;4883890;29;20006;-88
2024/01/19 06:39:14;;;;;;;;;;;-6.80;99.90;;;;;;4883403;29;19972;-88
2024/01/19 06:41:43;;;;;;;;;;;-7.00;99.90;;;;;;4898480;29;19920;-88
2024/01/19 06:44:09;;;;;;;;;;;-7.10;99.90;;;;;;4883699;29;19915;-88
2024/01/19 06:46:36;;;;;;;;;;;-7.10;99.90;;;;;;4868137;29;19916;-88
2024/01/19 06:49:02;;;;;;;;;;;-7.30;99.90;;;;;;4883578;29;19916;-88
2024/01/19 06:51:28;;;;;;;;;;;-7.30;99.90;;;;;;4899351;29;20025;-88
2024/01/19 06:53:57;;;;;;;;;;;-7.40;99.90;;;;;;4883029;29;19924;-87
2024/01/19 06:56:23;;;;;;;;;;;-7.50;99.90;;;;;;4883153;29;19966;-87
2024/01/19 06:58:49;;;;;;;;;;;-7.60;99.90;;;;;;4882391;29;19958;-88
2024/01/19 07:01:14;;;;;;;;;;;-7.70;99.90;;;;;;4881763;29;19939;-87
2024/01/19 07:03:40;;;;;;;;;;;-7.60;99.90;;;;;;4881923;29;19960;-88
2024/01/19 07:06:06;;;;;;;;;;;-7.60;99.90;;;;;;4882016;29;20366;-87
2024/01/19 07:08:31;;;;;;;;;;;-7.80;99.90;;;;;;4882301;29;20014;-88
2024/01/19 07:10:57;;;;;;;;;;;-7.80;99.90;;;;;;4881988;29;20403;-88
2024/01/19 07:13:23;;;;;;;;;;;-7.80;99.90;;;;;;4881740;29;19915;-85
2024/01/19 07:15:48;;;;;;;;;;;-7.80;99.90;;;;;;4880052;29;20371;-85
2024/01/19 07:18:14;;;;;;;;;;;-7.80;99.90;;;;;;4880434;29;20372;-85
2024/01/19 07:20:40;;;;;;;;;;;-7.80;99.90;;;;;;4881307;29;19926;-85
2024/01/19 07:23:24;;;;;;;;;;;-7.80;99.90;;;;;;4880621;29;19923;-85
2024/01/19 07:25:49;;;;;;;;;;;-7.90;99.90;;;;;;4896271;29;20390;-85
2024/01/19 07:28:15;;;;;;;;;;;-8.00;99.90;;;;;;4895663;29;20018;-85
2024/01/19 07:30:40;;;;;;;;;;;-8.00;99.90;;;;;;4880395;29;19920;-85
2024/01/19 07:33:06;;;;;;;;;;;-8.10;99.90;;;;;;4879710;29;20454;-85
2024/01/19 07:35:32;;;;;;;;;;;-8.10;99.90;;;;;;4864601;29;19920;-85
2024/01/19 07:37:58;;;;;;;;;;;-8.10;99.90;;;;;;4880332;29;19911;-85
2024/01/19 07:40:24;;;;;;;;;;;-8.10;99.90;;;;;;4879593;29;19922;-85
2024/01/19 07:42:55;;;;;;;;;;;-8.00;99.90;;;;;;4879912;29;20435;-85
2024/01/19 07:45:21;;;;;;;;;;;-7.80;99.90;;;;;;4879925;29;19927;-84
2024/01/19 07:47:46;;;;;;;;;;;-7.60;99.90;;;;;;4879300;29;19919;-85
2024/01/19 07:50:12;;;;;;;;;;;-7.40;99.90;;;;;;4879205;29;20726;-85
2024/01/19 07:52:38;;;;;;;;;;;-7.10;99.90;;;;;;4880084;29;20280;-85
2024/01/19 07:55:04;;;;;;;;;;;-6.80;99.90;;;;;;4880530;29;20273;-85
2024/01/19 07:57:44;;;;;;;;;;;-6.50;99.90;;;;;;4879842;29;19926;-85
2024/01/19 08:00:10;;;;;;;;;;;-6.20;99.90;;;;;;4879832;29;19915;-85
2024/01/19 08:02:36;;;;;;;;;;;-6.00;99.90;;;;;;4895027;29;20647;-85
2024/01/19 08:05:01;;;;;;;;;;;-5.90;99.90;;;;;;4879191;29;20354;-85
2024/01/19 08:07:27;;;;;;;;;;;-5.80;99.90;;;;;;4878765;29;19923;-85
2024/01/19 08:09:52;;;;;;;;;;;-5.80;99.90;;;;;;4879371;29;19919;-85
2024/01/19 08:12:18;;;;;;;;;;;-5.60;99.90;;;;;;4879100;29;19922;-85
2024/01/19 08:14:44;;;;;;;;;;;-5.50;99.90;;;;;;4879703;29;19919;-86
2024/01/19 08:17:10;;;;;;;;;;;-5.50;99.90;;;;;;4879602;29;19954;-85
2024/01/19 08:19:35;;;;;;;;;;;-5.50;99.90;;;;;;4880456;29;20343;-85
2024/01/19 08:22:01;;;;;;;;;;;-5.50;99.90;;;;;;4895339;29;19975;-85
2024/01/19 08:24:26;;;;;;;;;;;-5.60;99.90;;;;;;4895222;29;19927;-85
2024/01/19 08:26:52;;;;;;;;;;;-5.80;99.90;;;;;;4880438;29;20623;-85
2024/01/19 08:29:18;;;;;;;;;;;-5.80;99.90;;;;;;4880204;29;19926;-85
2024/01/19 08:31:43;;;;;;;;;;;-5.80;99.90;;;;;;4879839;29;19919;-85
2024/01/19 08:34:12;;;;;;;;;;;-5.90;99.90;;;;;;4879470;29;19929;-85
2024/01/19 08:36:41;;;;;;;;;;;-5.70;99.90;;;;;;4880144;29;19971;-85
2024/01/19 08:39:07;;;;;;;;;;;-5.60;99.90;;;;;;4879492;29;19915;-85
2024/01/19 08:41:39;;;;;;;;;;;-5.50;99.90;;;;;;4895501;29;20691;-85
2024/01/19 08:44:08;;;;;;;;;;;-5.30;99.90;;;;;;4880189;29;19916;-85
2024/01/19 08:46:43;;;;;;;;;;;-5.10;99.90;;;;;;4880478;29;19915;-86
2024/01/19 08:49:10;;;;;;;;;;;-4.90;99.90;;;;;;4864076;29;19922;-85
2024/01/19 08:51:36;;;;;;;;;;;-4.80;99.90;;;;;;4881925;29;19943;-85
2024/01/19 08:54:03;;;;;;;;;;;-4.70;99.90;;;;;;4883460;29;20034;-86
2024/01/19 08:56:29;;;;;;;;;;;-4.70;99.90;;;;;;4883174;29;19916;-85
2024/01/19 08:58:57;;;;;;;;;;;-4.60;99.90;;;;;;4883047;29;20394;-86
2024/01/19 09:01:22;;;;;;;;;;;-4.50;99.90;;;;;;4883267;29;20467;-85
2024/01/19 09:03:48;;;;;;;;;;;-4.40;99.90;;;;;;4882987;29;19976;-85
2024/01/19 09:06:14;;;;;;;;;;;-4.30;99.90;;;;;;4866997;29;20687;-85
2024/01/19 09:08:41;;;;;;;;;;;-4.20;99.90;;;;;;4882634;29;20087;-86
2024/01/19 09:11:06;;;;;;;;;;;-4.20;99.90;;;;;;4882796;29;19920;-85
2024/01/19 09:13:32;;;;;;;;;;;-4.10;99.90;;;;;;4867155;29;19927;-86
2024/01/19 09:15:59;;;;;;;;;;;-4.00;99.90;;;;;;4882967;29;19926;-86
2024/01/19 09:18:25;;;;;;;;;;;-4.00;99.90;;;;;;4883257;29;19966;-85
2024/01/19 09:20:50;;;;;;;;;;;-4.00;99.90;;;;;;4882495;29;19947;-85
2024/01/19 09:23:16;;;;;;;;;;;-3.90;99.90;;;;;;4882453;29;20030;-85
2024/01/19 09:25:42;;;;;;;;;;;-3.90;99.90;;;;;;4897437;29;20399;-85
2024/01/19 09:28:07;;;;;;;;;;;-3.80;99.90;;;;;;4898753;29;19916;-85
2024/01/19 09:30:33;;;;;;;;;;;-3.70;99.90;;;;;;4883019;29;19918;-85
2024/01/19 09:32:59;;;;;;;;;;;-3.60;99.90;;;;;;4898537;29;19925;-86
2024/01/19 09:35:24;;;;;;;;;;;-3.60;99.90;;;;;;4881329;29;20321;-85
2024/01/19 09:37:50;;;;;;;;;;;-3.50;99.90;;;;;;4882455;29;19959;-85
2024/01/19 09:40:16;;;;;;;;;;;-3.50;99.90;;;;;;4881638;29;20347;-85
2024/01/19 09:42:41;;;;;;;;;;;-3.50;99.90;;;;;;4882364;29;19951;-85
2024/01/19 09:45:17;;;;;;;;;;;-3.50;99.90;;;;;;4898556;29;19919;-85
2024/01/19 09:48:01;;;;;;;;;;;-3.40;99.90;;;;;;4897827;29;19926;-85
2024/01/19 09:50:29;;;;;;;;;;;-3.40;99.90;;;;;;4897889;29;19919;-85
2024/01/19 09:52:59;;;;;;;;;;;-3.30;99.90;;;;;;4882237;29;20420;-85
2024/01/19 09:55:25;;;;;;;;;;;-3.20;99.90;;;;;;4882133;29;19915;-85
2024/01/19 09:57:52;;;;;;;;;;;-3.10;99.90;;;;;;4899186;29;19919;-85
2024/01/19 10:00:18;;;;;;;;;;;-3.00;99.90;;;;;;4882627;29;20416;-85
2024/01/19 10:02:51;;;;;;;;;;;-3.00;99.90;;;;;;4882192;29;20372;-85
2024/01/19 10:08:45;;;;;;;;;;;-2.90;99.90;;;;;;4900083;29;19923;-85
2024/01/19 10:11:12;;;;;;;;;;;-2.80;99.90;;;;;;4881725;29;20390;-85
2024/01/19 10:13:37;;;;;;;;;;;-2.80;99.90;;;;;;4881661;29;19916;-85
2024/01/19 10:16:03;;;;;;;;;;;-2.50;99.90;;;;;;4881708;29;19939;-85
2024/01/19 10:18:29;;;;;;;;;;;-2.20;99.90;;;;;;4881802;29;20050;-85
2024/01/19 10:20:55;;;;;;;;;;;-2.00;99.90;;;;;;4881527;29;19963;-85
2024/01/19 10:23:21;;;;;;;;;;;-2.10;99.90;;;;;;4897517;29;20402;-85
2024/01/19 10:25:47;;;;;;;;;;;-2.10;99.90;;;;;;4881864;29;19920;-85
2024/01/19 10:28:34;;;;;;;;;;;-2.10;99.90;;;;;;4882423;29;19915;-85
2024/01/19 10:31:12;;;;;;;;;;;-2.10;99.90;;;;;;4866191;29;19922;-85
2024/01/19 10:33:46;;;;;;;;;;;-1.70;99.90;;;;;;4882248;29;19915;-85
2024/01/19 10:36:12;;;;;;;;;;;-1.20;99.90;;;;;;4897853;29;20704;-86
2024/01/19 10:38:50;;;;;;;;;;;-0.90;99.90;;;;;;4881591;29;19972;-85
2024/01/19 10:41:16;;;;;;;;;;;-0.60;99.90;;;;;;4881244;29;20398;-85
2024/01/19 10:43:42;;;;;;;;;;;-0.40;99.90;;;;;;4882232;29;19927;-85
2024/01/19 10:46:20;;;;;;;;;;;-0.30;99.90;;;;;;4881681;29;20644;-85
2024/01/19 10:48:46;;;;;;;;;;;-0.30;99.90;;;;;;4896830;29;19915;-86
2024/01/19 10:51:13;;;;;;;;;;;-0.40;99.90;;;;;;4881530;29;19920;-85
2024/01/19 10:53:38;;;;;;;;;;;-0.70;99.90;;;;;;4897147;29;19959;-85
2024/01/19 10:56:04;;;;;;;;;;;-0.90;99.90;;;;;;4897297;29;20389;-86
2024/01/19 10:58:33;;;;;;;;;;;-0.80;99.90;;;;;;4881583;29;20682;-85
2024/01/19 11:01:17;;;;;;;;;;;-0.80;99.90;;;;;;4880777;29;19911;-86
2024/01/19 11:03:43;;;;;;;;;;;-1.00;99.90;;;;;;4881022;29;19919;-85
2024/01/19 11:06:09;;;;;;;;;;;-1.00;99.90;;;;;;4881230;29;19922;-85
2024/01/19 11:08:36;;;;;;;;;;;-1.10;99.90;;;;;;4881056;29;20002;-85
2024/01/19 11:11:21;;;;;;;;;;;-1.00;99.90;;;;;;4880623;29;19971;-85
2024/01/19 11:13:46;;;;;;;;;;;-0.80;99.90;;;;;;4879767;29;19927;-85
2024/01/19 11:16:14;;;;;;;;;;;-0.80;99.90;;;;;;4881099;29;19916;-85
2024/01/19 11:18:39;;;;;;;;;;;-0.70;99.90;;;;;;4880748;29;20462;-85
2024/01/19 11:21:06;;;;;;;;;;;-0.60;99.90;;;;;;4881325;29;19911;-85
2024/01/19 11:23:33;;;;;;;;;;;-0.50;99.90;;;;;;4880364;29;19928;-85
2024/01/19 11:26:24;;;;;;;;;;;-0.50;99.90;;;;;;4880746;29;20018;-84
2024/01/19 11:28:56;;;;;;;;;;;-0.50;99.90;;;;;;4880413;29;19916;-85
2024/01/19 11:31:27;;;;;;;;;;;-0.50;99.90;;;;;;4879953;29;19934;-84
2024/01/19 11:33:53;;;;;;;;;;;-0.80;99.90;;;;;;4896363;29;20264;-84
2024/01/19 11:40:00;;;;;;;;;;;-0.80;99.90;;;;;;4890691;29;20011;-84
2024/01/19 11:42:35;;;;;;;;;;;-0.50;99.90;;;;;;4894779;29;20517;-85
2024/01/19 11:45:01;;;;;;;;;;;-0.50;99.90;;;;;;4895100;29;19923;-84
2024/01/19 11:47:35;;;;;;;;;;;-0.70;99.90;;;;;;4879334;29;19915;-85
2024/01/19 11:50:02;;;;;;;;;;;-0.80;99.90;;;;;;4894604;29;19943;-84
2024/01/19 11:52:35;;;;;;;;;;;-1.10;99.90;;;;;;4879699;29;19919;-84
2024/01/19 11:55:28;;;;;;;;;;;-1.30;99.90;;;;;;4895433;29;19925;-84
2024/01/19 11:57:55;;;;;;;;;;;-1.40;99.90;;;;;;4894946;29;19919;-84
2024/01/19 12:00:30;;;;;;;;;;;-1.10;99.90;;;;;;4880345;29;19963;-84
2024/01/19 12:02:56;;;;;;;;;;;-0.90;99.90;;;;;;4880858;29;19920;-84
2024/01/19 12:05:22;;;;;;;;;;;-0.80;99.90;;;;;;4880112;29;19916;-84
2024/01/19 12:07:47;;;;;;;;;;;-0.60;99.90;;;;;;4880537;29;19987;-84
2024/01/19 12:10:20;;;;;;;;;;;-0.70;99.90;;;;;;4880272;29;19962;-84
2024/01/19 12:12:47;;;;;;;;;;;-0.70;99.90;;;;;;4880783;29;19920;-84
2024/01/19 12:15:14;;;;;;;;;;;-0.60;99.90;;;;;;4879868;29;20533;-84
2024/01/19 12:17:40;;;;;;;;;;;-0.60;99.90;;;;;;4879793;29;20730;-84
2024/01/19 12:20:09;;;;;;;;;;;-0.80;99.90;;;;;;4880094;29;19994;-84
2024/01/19 12:22:38;;;;;;;;;;;-0.80;99.90;;;;;;4879792;29;19931;-84
2024/01/19 12:25:21;;;;;;;;;;;-1.00;99.90;;;;;;4864961;29;19954;-84
2024/01/19 12:27:47;;;;;;;;;;;-0.90;99.90;;;;;;4883679;29;19915;-84
2024/01/19 12:30:13;;;;;;;;;;;-1.00;99.90;;;;;;4883549;29;19916;-84
2024/01/19 12:32:39;;;;;;;;;;;-1.10;99.90;;;;;;4883337;29;20368;-84
2024/01/19 12:35:05;;;;;;;;;;;-1.00;99.90;;;;;;4883536;29;19926;-84
2024/01/19 12:37:30;;;;;;;;;;;-1.00;99.90;;;;;;4883616;29;20303;-84
2024/01/19 12:40:15;;;;;;;;;;;-0.90;99.90;;;;;;4898999;29;19924;-84
2024/01/19 12:42:43;;;;;;;;;;;-0.90;99.90;;;;;;4899903;29;19939;-84
2024/01/19 12:45:13;;;;;;;;;;;-0.80;99.90;;;;;;4883513;29;19923;-85
2024/01/19 12:47:42;;;;;;;;;;;-0.70;99.90;;;;;;4884024;29;20497;-84
2024/01/19 12:50:08;;;;;;;;;;;-0.70;99.90;;;;;;4883861;29;19915;-84
2024/01/19 12:52:34;;;;;;;;;;;-0.60;99.90;;;;;;4899593;29;20293;-84
2024/01/19 12:55:00;;;;;;;;;;;-0.60;99.90;;;;;;4884361;29;19923;-85
2024/01/19 12:57:25;;;;;;;;;;;-0.80;99.90;;;;;;4883527;29;20621;-84
2024/01/19 13:00:06;;;;;;;;;;;-1.00;99.90;;;;;;4898706;29;19955;-85
2024/01/19 13:02:32;;;;;;;;;;;-1.00;99.90;;;;;;4898438;29;20030;-84
2024/01/19 13:04:58;;;;;;;;;;;-0.90;99.90;;;;;;4898798;29;20398;-85
2024/01/19 13:07:24;;;;;;;;;;;-1.00;99.90;;;;;;4882902;29;19966;-85
2024/01/19 13:10:05;;;;;;;;;;;-1.00;99.90;;;;;;4882006;29;19916;-85
2024/01/19 13:12:31;;;;;;;;;;;-1.10;99.90;;;;;;4881710;29;19924;-85
2024/01/19 13:15:07;;;;;;;;;;;-1.00;99.90;;;;;;4883096;29;19912;-85
2024/01/19 13:17:32;;;;;;;;;;;-1.10;99.90;;;;;;4883080;29;20756;-84
2024/01/19 13:19:58;;;;;;;;;;;-1.00;99.90;;;;;;4882551;29;20018;-85
2024/01/19 13:22:24;;;;;;;;;;;-0.90;99.90;;;;;;4882519;29;19927;-85
2024/01/19 13:24:52;;;;;;;;;;;-0.70;99.90;;;;;;4882257;29;20079;-85
2024/01/19 13:27:18;;;;;;;;;;;-0.60;99.90;;;;;;4882928;29;20653;-85
2024/01/19 13:29:43;;;;;;;;;;;-0.50;99.90;;;;;;4883129;29;19927;-85
2024/01/19 13:32:10;;;;;;;;;;;-0.40;99.90;;;;;;4882095;29;19923;-85
2024/01/19 13:34:35;;;;;;;;;;;-0.50;99.90;;;;;;4881027;29;19954;-85
2024/01/19 13:37:01;;;;;;;;;;;-0.50;99.90;;;;;;4882191;29;19919;-85
2024/01/19 13:39:27;;;;;;;;;;;-0.60;99.90;;;;;;4882763;29;19923;-85
2024/01/19 13:41:53;;;;;;;;;;;-0.80;99.90;;;;;;4882483;29;19931;-85
2024/01/19 13:44:19;;;;;;;;;;;-0.90;99.90;;;;;;4899636;29;19927;-85
2024/01/19 13:46:44;;;;;;;;;;;-1.00;99.90;;;;;;4881947;29;19923;-85
2024/01/19 13:49:10;;;;;;;;;;;-1.10;99.90;;;;;;4882173;29;19916;-85
2024/01/19 13:51:45;;;;;;;;;;;-1.30;99.90;;;;;;4898227;29;20288;-84
2024/01/19 13:54:10;;;;;;;;;;;-1.50;99.90;;;;;;4882459;29;20419;-84
2024/01/19 13:56:36;;;;;;;;;;;-1.60;99.90;;;;;;4882369;29;20011;-85
2024/01/19 13:59:02;;;;;;;;;;;-1.60;99.90;;;;;;4882415;29;20529;-84
2024/01/19 14:01:27;;;;;;;;;;;-1.70;99.90;;;;;;4882274;29;20427;-85
2024/01/19 14:03:53;;;;;;;;;;;-1.50;99.90;;;;;;4898542;29;19919;-85
2024/01/19 14:06:19;;;;;;;;;;;-1.30;99.90;;;;;;4881956;29;20292;-85
2024/01/19 14:08:45;;;;;;;;;;;-1.10;99.90;;;;;;4882239;29;20336;-85
2024/01/19 14:11:13;;;;;;;;;;;-1.10;99.90;;;;;;4881751;29;19930;-85
2024/01/19 14:13:39;;;;;;;;;;;-1.20;99.90;;;;;;4881923;29;19927;-85
2024/01/19 14:16:05;;;;;;;;;;;-1.20;99.90;;;;;;4881713;29;20280;-85
2024/01/19 14:18:31;;;;;;;;;;;-1.30;99.90;;;;;;4881849;29;19916;-85
2024/01/19 14:20:56;;;;;;;;;;;-1.40;99.90;;;;;;4897600;29;20131;-85
2024/01/19 14:23:34;;;;;;;;;;;-1.50;99.90;;;;;;4881980;29;19919;-85
2024/01/19 14:26:00;;;;;;;;;;;-1.50;99.90;;;;;;4881873;29;20495;-85